RYR1AM EDFH-LIMF
Flight info
| Callsign | RYR1AM |
|---|---|
| Flight time | 0h 58m |
| Altitude | 35000 |
| Route | GEBDA6E/03 GEBDA Y173 EDISA Y852 NATOR N850 ODINA DCT NELAB |
| Aircraft | B738/M-SDE2E3FGHIRWXY/LB1 |
Departure
| Time | 2026-04-27 16:21 |
|---|---|
| Airport | Frankfurt-Hahn Airport (EDFH) |
Arrival
| Time | 2026-04-27 17:19 |
|---|---|
| Airport | Turin Airport (LIMF) |
| Time | Latitude | Longitude | Altitude | Speed | Heading |
|---|---|---|---|---|---|
| 2026-04-27 15:53 | 49.94673 | 7.26772 | 1620 ft | 0 kts | 212° |
| 2026-04-27 16:12 | 49.94698 | 7.26797 | 1619 ft | 2 kts | 212° |
| 2026-04-27 16:13 | 49.94712 | 7.26811 | 1622 ft | 2 kts | 212° |
| 2026-04-27 16:13 | 49.94725 | 7.26823 | 1619 ft | 0 kts | 212° |
| 2026-04-27 16:15 | 49.94725 | 7.26822 | 1619 ft | 0 kts | 220° |
| 2026-04-27 16:15 | 49.94706 | 7.26745 | 1619 ft | 10 kts | 249° |
| 2026-04-27 16:16 | 49.94578 | 7.26651 | 1627 ft | 7 kts | 187° |
| 2026-04-27 16:16 | 49.94468 | 7.26545 | 1625 ft | 14 kts | 214° |
| 2026-04-27 16:17 | 49.94275 | 7.26345 | 1630 ft | 19 kts | 213° |
| 2026-04-27 16:17 | 49.94027 | 7.26091 | 1631 ft | 23 kts | 213° |
| 2026-04-27 16:18 | 49.93765 | 7.25785 | 1636 ft | 23 kts | 222° |
| 2026-04-27 16:18 | 49.93651 | 7.25509 | 1639 ft | 14 kts | 224° |
| 2026-04-27 16:19 | 49.93571 | 7.25427 | 1640 ft | 14 kts | 212° |
| 2026-04-27 16:19 | 49.93493 | 7.25350 | 1642 ft | 13 kts | 212° |
| 2026-04-27 16:20 | 49.93256 | 7.25115 | 1646 ft | 17 kts | 211° |
| 2026-04-27 16:20 | 49.93233 | 7.25025 | 1646 ft | 11 kts | 287° |
| 2026-04-27 16:20 | 49.93314 | 7.24869 | 1646 ft | 5 kts | 7° |
| 2026-04-27 16:21 | 49.93373 | 7.24922 | 1645 ft | 22 kts | 33° |
| 2026-04-27 16:21 | 49.95560 | 7.27091 | 2287 ft | 176 kts | 35° |
| 2026-04-27 16:22 | 49.96568 | 7.28144 | 3353 ft | 172 kts | 34° |
| 2026-04-27 16:22 | 49.98843 | 7.30362 | 4594 ft | 211 kts | 31° |
| 2026-04-27 16:22 | 50.00085 | 7.31567 | 5201 ft | 211 kts | 31° |
| 2026-04-27 16:23 | 50.01385 | 7.32829 | 5556 ft | 240 kts | 31° |
| 2026-04-27 16:23 | 50.03213 | 7.37508 | 6809 ft | 280 kts | 89° |
| 2026-04-27 16:23 | 50.02718 | 7.40437 | 7809 ft | 286 kts | 117° |
| 2026-04-27 16:24 | 50.01643 | 7.43033 | 8870 ft | 287 kts | 128° |
| 2026-04-27 16:24 | 49.98839 | 7.45752 | 10406 ft | 293 kts | 158° |
| 2026-04-27 16:25 | 49.94803 | 7.48474 | 11181 ft | 340 kts | 157° |
| 2026-04-27 16:25 | 49.90387 | 7.51573 | 12815 ft | 352 kts | 156° |
| 2026-04-27 16:26 | 49.85883 | 7.54794 | 14470 ft | 361 kts | 156° |
| 2026-04-27 16:26 | 49.81258 | 7.58111 | 15962 ft | 371 kts | 156° |
| 2026-04-27 16:27 | 49.76574 | 7.61607 | 17416 ft | 381 kts | 151° |
| 2026-04-27 16:27 | 49.69831 | 7.68542 | 19440 ft | 395 kts | 147° |
| 2026-04-27 16:28 | 49.65236 | 7.73387 | 20697 ft | 404 kts | 147° |
| 2026-04-27 16:28 | 49.60538 | 7.78233 | 21893 ft | 412 kts | 148° |
| 2026-04-27 16:29 | 49.53244 | 7.85661 | 23652 ft | 425 kts | 148° |
| 2026-04-27 16:30 | 49.48258 | 7.90715 | 24640 ft | 432 kts | 148° |
| 2026-04-27 16:30 | 49.43194 | 7.95836 | 25612 ft | 438 kts | 149° |
| 2026-04-27 16:31 | 49.35488 | 8.03603 | 26911 ft | 449 kts | 149° |
| 2026-04-27 16:31 | 49.30247 | 8.08870 | 27901 ft | 451 kts | 149° |
| 2026-04-27 16:32 | 49.25004 | 8.14130 | 29151 ft | 447 kts | 149° |
| 2026-04-27 16:32 | 49.22400 | 8.16735 | 29731 ft | 447 kts | 149° |
| 2026-04-27 16:33 | 49.17196 | 8.21931 | 30129 ft | 454 kts | 149° |
| 2026-04-27 16:33 | 49.14492 | 8.24391 | 30123 ft | 449 kts | 157° |
| 2026-04-27 16:33 | 49.11605 | 8.26032 | 30137 ft | 439 kts | 168° |
| 2026-04-27 16:33 | 49.08617 | 8.26927 | 30133 ft | 435 kts | 178° |
| 2026-04-27 16:34 | 49.02582 | 8.27706 | 30134 ft | 436 kts | 179° |
| 2026-04-27 16:34 | 48.96559 | 8.28478 | 30137 ft | 437 kts | 178° |
| 2026-04-27 16:35 | 48.90497 | 8.29292 | 30129 ft | 437 kts | 178° |
| 2026-04-27 16:36 | 48.81411 | 8.30540 | 30129 ft | 436 kts | 178° |
| 2026-04-27 16:36 | 48.75365 | 8.31373 | 30123 ft | 435 kts | 178° |
| 2026-04-27 16:37 | 48.69334 | 8.32201 | 30113 ft | 434 kts | 178° |
| 2026-04-27 16:37 | 48.63335 | 8.33022 | 30117 ft | 432 kts | 178° |
| 2026-04-27 16:38 | 48.57394 | 8.33843 | 30126 ft | 432 kts | 178° |
| 2026-04-27 16:38 | 48.51444 | 8.34668 | 30113 ft | 433 kts | 178° |
| 2026-04-27 16:39 | 48.45436 | 8.35500 | 30117 ft | 433 kts | 178° |
| 2026-04-27 16:39 | 48.39421 | 8.36328 | 30108 ft | 434 kts | 178° |
| 2026-04-27 16:40 | 48.33404 | 8.37155 | 30132 ft | 434 kts | 178° |
| 2026-04-27 16:40 | 48.27371 | 8.37983 | 30118 ft | 436 kts | 178° |
| 2026-04-27 16:41 | 48.21325 | 8.38810 | 30117 ft | 436 kts | 178° |
| 2026-04-27 16:41 | 48.15274 | 8.39636 | 30114 ft | 436 kts | 178° |
| 2026-04-27 16:42 | 48.09234 | 8.40459 | 30120 ft | 435 kts | 178° |
| 2026-04-27 16:42 | 48.03244 | 8.41273 | 30115 ft | 435 kts | 178° |
| 2026-04-27 16:43 | 47.97212 | 8.42090 | 30121 ft | 435 kts | 178° |
| 2026-04-27 16:43 | 47.91344 | 8.42883 | 30117 ft | 435 kts | 178° |
| 2026-04-27 16:44 | 47.85311 | 8.43697 | 30112 ft | 435 kts | 178° |
| 2026-04-27 16:44 | 47.79278 | 8.44509 | 30115 ft | 436 kts | 178° |
| 2026-04-27 16:45 | 47.73228 | 8.45321 | 30117 ft | 436 kts | 178° |
| 2026-04-27 16:45 | 47.67407 | 8.46100 | 30109 ft | 437 kts | 178° |
| 2026-04-27 16:46 | 47.61354 | 8.46910 | 30102 ft | 437 kts | 178° |
| 2026-04-27 16:46 | 47.55301 | 8.47717 | 30102 ft | 436 kts | 178° |
| 2026-04-27 16:47 | 47.49281 | 8.48518 | 30099 ft | 435 kts | 178° |
| 2026-04-27 16:47 | 47.43244 | 8.49320 | 30105 ft | 434 kts | 178° |
| 2026-04-27 16:48 | 47.37258 | 8.50112 | 30099 ft | 434 kts | 178° |
| 2026-04-27 16:48 | 47.31239 | 8.50907 | 30097 ft | 433 kts | 178° |
| 2026-04-27 16:49 | 47.22226 | 8.52095 | 30102 ft | 433 kts | 178° |
| 2026-04-27 16:49 | 47.16253 | 8.52879 | 30104 ft | 433 kts | 178° |
| 2026-04-27 16:50 | 47.10248 | 8.53666 | 30095 ft | 433 kts | 178° |
| 2026-04-27 16:50 | 47.04225 | 8.54454 | 30101 ft | 434 kts | 178° |
| 2026-04-27 16:51 | 46.98221 | 8.55238 | 30105 ft | 433 kts | 177° |
| 2026-04-27 16:51 | 46.92256 | 8.56015 | 30092 ft | 431 kts | 178° |
| 2026-04-27 16:52 | 46.86279 | 8.56791 | 30090 ft | 431 kts | 177° |
| 2026-04-27 16:52 | 46.80316 | 8.57563 | 30090 ft | 429 kts | 177° |
| 2026-04-27 16:53 | 46.74366 | 8.58333 | 30111 ft | 428 kts | 177° |
| 2026-04-27 16:53 | 46.68470 | 8.59094 | 30088 ft | 427 kts | 177° |
| 2026-04-27 16:54 | 46.62541 | 8.59857 | 30098 ft | 428 kts | 177° |
| 2026-04-27 16:54 | 46.56596 | 8.60620 | 30098 ft | 429 kts | 177° |
| 2026-04-27 16:55 | 46.50629 | 8.61384 | 30083 ft | 429 kts | 177° |
| 2026-04-27 16:55 | 46.47691 | 8.61761 | 29900 ft | 426 kts | 178° |
| 2026-04-27 16:55 | 46.44759 | 8.62138 | 29587 ft | 421 kts | 177° |
| 2026-04-27 16:56 | 46.41866 | 8.62509 | 29293 ft | 415 kts | 177° |
| 2026-04-27 16:56 | 46.38987 | 8.62878 | 29102 ft | 414 kts | 178° |
| 2026-04-27 16:56 | 46.33270 | 8.63604 | 29004 ft | 412 kts | 178° |
| 2026-04-27 16:57 | 46.30438 | 8.63962 | 28694 ft | 413 kts | 178° |
| 2026-04-27 16:57 | 46.27582 | 8.64325 | 28414 ft | 410 kts | 178° |
| 2026-04-27 16:57 | 46.24765 | 8.64683 | 28132 ft | 404 kts | 177° |
| 2026-04-27 16:57 | 46.21983 | 8.65037 | 27858 ft | 400 kts | 177° |
| 2026-04-27 16:58 | 46.19209 | 8.65387 | 27593 ft | 399 kts | 178° |
| 2026-04-27 16:58 | 46.16444 | 8.65737 | 27319 ft | 397 kts | 178° |
| 2026-04-27 16:58 | 46.13698 | 8.66083 | 27077 ft | 396 kts | 179° |
| 2026-04-27 16:58 | 46.11067 | 8.66072 | 26764 ft | 390 kts | 189° |
| 2026-04-27 16:59 | 46.08411 | 8.65401 | 26555 ft | 385 kts | 198° |
| 2026-04-27 16:59 | 46.05925 | 8.64168 | 26342 ft | 383 kts | 204° |
| 2026-04-27 16:59 | 46.03433 | 8.62786 | 26088 ft | 383 kts | 204° |
| 2026-04-27 16:59 | 46.00937 | 8.61395 | 25845 ft | 384 kts | 204° |
| 2026-04-27 17:00 | 45.96788 | 8.59099 | 25437 ft | 384 kts | 204° |
| 2026-04-27 17:00 | 45.93440 | 8.57264 | 25110 ft | 383 kts | 203° |
| 2026-04-27 17:00 | 45.90950 | 8.55907 | 24863 ft | 382 kts | 203° |
| 2026-04-27 17:01 | 45.88495 | 8.54574 | 24630 ft | 381 kts | 203° |
| 2026-04-27 17:01 | 45.86022 | 8.53233 | 24387 ft | 379 kts | 203° |
| 2026-04-27 17:01 | 45.83553 | 8.51895 | 24146 ft | 378 kts | 203° |
| 2026-04-27 17:01 | 45.81102 | 8.50568 | 23917 ft | 376 kts | 203° |
| 2026-04-27 17:02 | 45.78651 | 8.49243 | 23688 ft | 375 kts | 203° |
| 2026-04-27 17:02 | 45.76214 | 8.47927 | 23426 ft | 373 kts | 203° |
| 2026-04-27 17:02 | 45.73811 | 8.46540 | 23147 ft | 370 kts | 209° |
| 2026-04-27 17:02 | 45.71609 | 8.44682 | 22887 ft | 366 kts | 214° |
| 2026-04-27 17:03 | 45.69470 | 8.42713 | 22617 ft | 365 kts | 215° |
| 2026-04-27 17:03 | 45.67340 | 8.40730 | 22349 ft | 365 kts | 215° |
| 2026-04-27 17:03 | 45.65211 | 8.38751 | 22087 ft | 364 kts | 214° |
| 2026-04-27 17:03 | 45.63087 | 8.36792 | 21839 ft | 363 kts | 214° |
| 2026-04-27 17:04 | 45.60985 | 8.34866 | 21576 ft | 362 kts | 214° |
| 2026-04-27 17:04 | 45.58864 | 8.32931 | 21317 ft | 362 kts | 214° |
| 2026-04-27 17:04 | 45.56741 | 8.31001 | 21062 ft | 360 kts | 214° |
| 2026-04-27 17:04 | 45.54630 | 8.29089 | 20727 ft | 357 kts | 214° |
| 2026-04-27 17:05 | 45.52537 | 8.27195 | 20340 ft | 354 kts | 214° |
| 2026-04-27 17:05 | 45.50458 | 8.25316 | 19932 ft | 352 kts | 214° |
| 2026-04-27 17:05 | 45.48392 | 8.23452 | 19541 ft | 350 kts | 214° |
| 2026-04-27 17:05 | 45.47035 | 8.22228 | 19280 ft | 349 kts | 214° |
| 2026-04-27 17:06 | 45.44292 | 8.19756 | 18757 ft | 347 kts | 214° |
| 2026-04-27 17:06 | 45.42284 | 8.17949 | 18366 ft | 345 kts | 214° |
| 2026-04-27 17:06 | 45.40248 | 8.16118 | 17864 ft | 345 kts | 213° |
| 2026-04-27 17:06 | 45.38242 | 8.14316 | 17427 ft | 336 kts | 213° |
| 2026-04-27 17:07 | 45.36291 | 8.12565 | 16971 ft | 328 kts | 213° |
| 2026-04-27 17:07 | 45.34374 | 8.10846 | 16408 ft | 324 kts | 213° |
| 2026-04-27 17:07 | 45.32470 | 8.09139 | 15824 ft | 322 kts | 213° |
| 2026-04-27 17:07 | 45.30581 | 8.07447 | 15247 ft | 320 kts | 213° |
| 2026-04-27 17:08 | 45.28707 | 8.05770 | 14707 ft | 317 kts | 213° |
| 2026-04-27 17:08 | 45.26848 | 8.04108 | 14174 ft | 315 kts | 213° |
| 2026-04-27 17:08 | 45.25027 | 8.02481 | 13965 ft | 301 kts | 213° |
| 2026-04-27 17:08 | 45.23283 | 8.00925 | 13648 ft | 292 kts | 213° |
| 2026-04-27 17:09 | 45.21568 | 7.99394 | 13113 ft | 291 kts | 213° |
| 2026-04-27 17:09 | 45.19851 | 7.97863 | 12585 ft | 290 kts | 213° |
| 2026-04-27 17:09 | 45.18170 | 7.96364 | 12105 ft | 288 kts | 213° |
| 2026-04-27 17:09 | 45.16474 | 7.94854 | 11625 ft | 287 kts | 213° |
| 2026-04-27 17:10 | 45.14792 | 7.93357 | 11146 ft | 285 kts | 213° |
| 2026-04-27 17:10 | 45.13117 | 7.91867 | 10680 ft | 283 kts | 213° |
| 2026-04-27 17:10 | 45.11446 | 7.90383 | 10211 ft | 282 kts | 213° |
| 2026-04-27 17:10 | 45.09787 | 7.88909 | 9746 ft | 281 kts | 213° |
| 2026-04-27 17:11 | 45.08689 | 7.87935 | 9420 ft | 279 kts | 213° |
| 2026-04-27 17:11 | 45.05423 | 7.85038 | 8487 ft | 275 kts | 213° |
| 2026-04-27 17:11 | 45.03823 | 7.83621 | 7996 ft | 268 kts | 213° |
| 2026-04-27 17:12 | 45.00653 | 7.80816 | 6687 ft | 267 kts | 212° |
| 2026-04-27 17:12 | 44.99120 | 7.79462 | 6225 ft | 259 kts | 212° |
| 2026-04-27 17:12 | 44.97805 | 7.77849 | 5947 ft | 242 kts | 236° |
| 2026-04-27 17:13 | 44.97220 | 7.75741 | 5826 ft | 221 kts | 259° |
| 2026-04-27 17:13 | 44.97138 | 7.73667 | 5694 ft | 203 kts | 272° |
| 2026-04-27 17:13 | 44.97205 | 7.71754 | 5561 ft | 187 kts | 273° |
| 2026-04-27 17:13 | 44.97278 | 7.69970 | 5338 ft | 179 kts | 273° |
| 2026-04-27 17:14 | 44.97346 | 7.68240 | 5025 ft | 178 kts | 272° |
| 2026-04-27 17:14 | 44.97411 | 7.66507 | 4697 ft | 177 kts | 272° |
| 2026-04-27 17:14 | 44.97752 | 7.64862 | 4285 ft | 178 kts | 309° |
| 2026-04-27 17:14 | 44.98826 | 7.64109 | 4038 ft | 179 kts | 357° |
| 2026-04-27 17:15 | 45.00090 | 7.64024 | 4027 ft | 185 kts | 355° |
| 2026-04-27 17:15 | 45.01369 | 7.63894 | 3976 ft | 181 kts | 358° |
| 2026-04-27 17:15 | 45.02602 | 7.63881 | 3947 ft | 177 kts | 1° |
| 2026-04-27 17:15 | 45.03864 | 7.63935 | 3801 ft | 182 kts | 2° |
| 2026-04-27 17:16 | 45.05119 | 7.64010 | 3570 ft | 183 kts | 2° |
| 2026-04-27 17:16 | 45.06392 | 7.64090 | 3331 ft | 182 kts | 3° |
| 2026-04-27 17:16 | 45.07647 | 7.64171 | 3094 ft | 180 kts | 3° |
| 2026-04-27 17:16 | 45.08891 | 7.64250 | 2852 ft | 178 kts | 3° |
| 2026-04-27 17:17 | 45.10120 | 7.64328 | 2628 ft | 176 kts | 2° |
| 2026-04-27 17:17 | 45.11334 | 7.64405 | 2402 ft | 174 kts | 4° |
| 2026-04-27 17:17 | 45.12541 | 7.64484 | 2179 ft | 173 kts | 3° |
| 2026-04-27 17:18 | 45.14896 | 7.64633 | 1775 ft | 167 kts | 3° |
| 2026-04-27 17:18 | 45.16030 | 7.64705 | 1540 ft | 159 kts | 3° |
| 2026-04-27 17:18 | 45.17126 | 7.64776 | 1312 ft | 156 kts | 4° |
| 2026-04-27 17:18 | 45.18166 | 7.64843 | 1112 ft | 153 kts | 4° |
| 2026-04-27 17:19 | 45.19090 | 7.64899 | 978 ft | 151 kts | 4° |
| 2026-04-27 17:19 | 45.19834 | 7.64952 | 962 ft | 129 kts | 360° |
| 2026-04-27 17:19 | 45.20415 | 7.64987 | 988 ft | 75 kts | 2° |
| 2026-04-27 17:19 | 45.20828 | 7.64983 | 990 ft | 30 kts | 330° |
| 2026-04-27 17:20 | 45.20875 | 7.64825 | 990 ft | 12 kts | 257° |
| 2026-04-27 17:20 | 45.20844 | 7.64767 | 994 ft | 6 kts | 218° |
| 2026-04-27 17:20 | 45.20804 | 7.64744 | 991 ft | 6 kts | 192° |
| 2026-04-27 17:20 | 45.20757 | 7.64738 | 989 ft | 8 kts | 185° |
| 2026-04-27 17:21 | 45.20690 | 7.64736 | 993 ft | 12 kts | 181° |
| 2026-04-27 17:21 | 45.20609 | 7.64729 | 987 ft | 9 kts | 186° |
| 2026-04-27 17:21 | 45.20543 | 7.64725 | 991 ft | 10 kts | 181° |
| 2026-04-27 17:21 | 45.20467 | 7.64723 | 984 ft | 13 kts | 181° |
| 2026-04-27 17:22 | 45.20363 | 7.64716 | 990 ft | 17 kts | 183° |
| 2026-04-27 17:22 | 45.20234 | 7.64706 | 974 ft | 20 kts | 181° |
| 2026-04-27 17:22 | 45.20087 | 7.64698 | 962 ft | 21 kts | 184° |
| 2026-04-27 17:22 | 45.19946 | 7.64689 | 962 ft | 18 kts | 182° |
| 2026-04-27 17:23 | 45.19820 | 7.64682 | 959 ft | 16 kts | 181° |
| 2026-04-27 17:23 | 45.19723 | 7.64699 | 959 ft | 13 kts | 183° |
| 2026-04-27 17:23 | 45.19653 | 7.64693 | 960 ft | 8 kts | 184° |
| 2026-04-27 17:23 | 45.19591 | 7.64686 | 959 ft | 10 kts | 184° |
| 2026-04-27 17:24 | 45.19520 | 7.64684 | 955 ft | 11 kts | 182° |
| 2026-04-27 17:24 | 45.19447 | 7.64679 | 955 ft | 10 kts | 182° |
| 2026-04-27 17:24 | 45.19382 | 7.64675 | 958 ft | 9 kts | 182° |
| 2026-04-27 17:24 | 45.19324 | 7.64672 | 958 ft | 9 kts | 181° |
| 2026-04-27 17:25 | 45.19248 | 7.64668 | 954 ft | 14 kts | 182° |
| 2026-04-27 17:25 | 45.19135 | 7.64662 | 949 ft | 14 kts | 181° |
| 2026-04-27 17:25 | 45.19100 | 7.64656 | 948 ft | 0 kts | 204° |
| 2026-04-27 17:26 | 45.19099 | 7.64655 | 948 ft | 1 kts | 208° |
| 2026-04-27 17:26 | 45.19095 | 7.64651 | 948 ft | 1 kts | 215° |
| 2026-04-27 17:26 | 45.19065 | 7.64571 | 948 ft | 0 kts | 273° |